createdAt,value
2023-07-17T00:04:36.092Z,24.17
2023-07-17T00:10:42.596Z,12.90
2023-07-17T00:16:51.471Z,8.73
2023-07-17T00:23:09.458Z,10.63
2023-07-17T00:29:32.183Z,10.68
2023-07-17T00:35:37.842Z,8.43
2023-07-17T00:41:45.575Z,11.93
2023-07-17T00:47:52.833Z,13.82
2023-07-17T00:53:57.093Z,14.73
2023-07-17T01:00:01.539Z,11.65
2023-07-17T01:06:04.036Z,29.92
2023-07-17T01:12:06.473Z,9.50
2023-07-17T01:18:10.043Z,15.80
2023-07-17T01:24:12.432Z,16.58
2023-07-17T01:30:14.871Z,10.38
2023-07-17T01:36:18.438Z,16.95
2023-07-17T01:42:28.962Z,9.02
2023-07-17T01:48:30.847Z,13.55
2023-07-17T01:54:35.890Z,12.60
2023-07-17T02:00:38.329Z,10.45
2023-07-17T02:06:42.796Z,12.43
2023-07-17T02:12:48.262Z,10.43
2023-07-17T02:19:05.801Z,11.15
2023-07-17T02:25:09.566Z,10.32
2023-07-17T02:31:16.007Z,15.43
2023-07-17T02:37:24.188Z,11.20
2023-07-17T02:43:26.647Z,8.02
2023-07-17T02:49:29.125Z,14.32
2023-07-17T02:55:31.659Z,9.38
2023-07-17T03:01:40.162Z,15.20
2023-07-17T03:07:45.541Z,14.73
2023-07-17T03:13:48.098Z,10.18
2023-07-17T03:19:52.568Z,13.90
2023-07-17T03:26:10.086Z,19.45
2023-07-17T03:32:12.610Z,13.07
2023-07-17T03:38:30.103Z,12.73
2023-07-17T03:44:32.660Z,16.42
2023-07-17T03:50:37.075Z,17.63
2023-07-17T03:56:41.564Z,12.77
2023-07-17T04:02:47.051Z,18.70
2023-07-17T04:08:49.468Z,12.50
2023-07-17T04:14:55.453Z,10.68
2023-07-17T04:20:58.391Z,16.38
2023-07-17T04:27:01.848Z,18.63
2023-07-17T04:33:06.479Z,15.20
2023-07-17T04:39:45.741Z,48.00
2023-07-17T04:46:00.481Z,53.83
2023-07-17T04:52:38.139Z,20.88
2023-07-17T04:58:45.125Z,12.75
2023-07-17T05:05:20.218Z,17.73
2023-07-17T05:11:28.734Z,19.50
2023-07-17T05:17:49.402Z,16.83
2023-07-17T05:23:55.737Z,13.35
2023-07-17T05:30:09.579Z,85.18
2023-07-17T05:36:13.010Z,32.00
2023-07-17T05:42:19.755Z,42.80
2023-07-17T05:48:29.656Z,126.43
2023-07-17T05:54:47.252Z,22.85
2023-07-17T06:00:54.912Z,18.63
2023-07-17T06:06:59.965Z,18.45
2023-07-17T06:13:10.920Z,22.50
2023-07-17T06:19:22.210Z,16.13
2023-07-17T06:25:27.690Z,27.70
2023-07-17T06:31:29.782Z,16.75
2023-07-17T06:37:44.670Z,12.85
2023-07-17T06:43:47.110Z,16.95
2023-07-17T06:50:10.545Z,25.90
2023-07-17T06:56:15.739Z,20.80
2023-07-17T07:02:19.737Z,20.27
2023-07-17T07:08:30.910Z,18.60
2023-07-17T07:14:45.351Z,17.85
2023-07-17T07:20:53.602Z,20.98
2023-07-17T07:27:01.720Z,12.57
2023-07-17T07:33:04.015Z,13.45
2023-07-17T07:39:13.473Z,15.48
2023-07-17T07:45:22.178Z,18.00
2023-07-17T07:51:36.477Z,17.58
2023-07-17T07:58:01.715Z,13.93
2023-07-17T08:04:06.275Z,13.90
2023-07-17T08:10:42.352Z,14.05
2023-07-17T08:16:59.071Z,15.05
2023-07-17T08:23:04.340Z,14.27
2023-07-17T08:29:22.527Z,10.13
2023-07-17T08:35:29.446Z,10.63
2023-07-17T08:41:31.969Z,13.63
2023-07-17T08:48:08.558Z,12.02
2023-07-17T08:54:30.159Z,17.20
2023-07-17T09:00:52.167Z,11.27
2023-07-17T09:07:01.922Z,12.95
2023-07-17T09:13:56.237Z,9.23
2023-07-17T09:20:26.666Z,10.35
2023-07-17T09:26:39.473Z,12.00
2023-07-17T09:32:50.245Z,9.60
2023-07-17T09:38:56.680Z,12.75
2023-07-17T09:45:00.281Z,5.40
2023-07-17T09:51:15.971Z,11.40
2023-07-17T09:57:35.290Z,6.82
2023-07-17T10:03:40.736Z,11.10
2023-07-17T10:09:45.837Z,7.13
2023-07-17T10:15:51.553Z,10.90
2023-07-17T10:22:36.563Z,11.50
2023-07-17T10:28:39.998Z,11.60
2023-07-17T10:34:54.517Z,8.25
2023-07-17T10:41:17.290Z,9.13
2023-07-17T10:47:27.825Z,11.70
2023-07-17T10:53:32.033Z,6.43
2023-07-17T10:59:37.799Z,9.68
2023-07-17T11:05:45.745Z,10.63
2023-07-17T11:11:54.813Z,7.55
2023-07-17T11:18:06.364Z,8.00
2023-07-17T11:24:08.618Z,6.85
2023-07-17T11:30:26.354Z,8.70
2023-07-17T11:36:39.828Z,9.35
2023-07-17T11:43:05.405Z,6.05
2023-07-17T11:49:08.396Z,7.68
2023-07-17T11:55:36.495Z,7.97
2023-07-17T12:01:42.674Z,11.85
2023-07-17T12:07:46.590Z,13.15
2023-07-17T12:13:49.683Z,7.13
2023-07-17T12:19:51.570Z,14.30
2023-07-17T12:25:53.373Z,7.07
2023-07-17T12:31:57.034Z,8.43
2023-07-17T12:38:00.489Z,9.10
2023-07-17T12:44:37.047Z,13.10
2023-07-17T12:50:40.646Z,8.48
2023-07-17T12:56:47.861Z,6.30
2023-07-17T13:02:50.665Z,4.97
2023-07-17T13:08:56.950Z,17.67
2023-07-17T13:15:00.469Z,15.55
2023-07-17T13:21:02.606Z,8.02
2023-07-17T13:27:09.596Z,6.93
2023-07-17T13:33:11.972Z,7.07
2023-07-17T13:39:16.669Z,8.02
2023-07-17T13:45:42.586Z,8.18
2023-07-17T13:51:49.063Z,8.25
2023-07-17T13:58:06.446Z,5.10
2023-07-17T14:04:24.225Z,17.60
2023-07-17T14:17:04.181Z,8.82
2023-07-17T14:23:25.625Z,7.05
2023-07-17T14:30:10.091Z,11.13
2023-07-17T14:36:49.310Z,7.50
2023-07-17T14:43:59.893Z,9.73
2023-07-17T14:58:02.365Z,7.38
2023-07-17T15:04:17.832Z,9.55
2023-07-17T15:17:47.045Z,10.95
2023-07-17T15:39:08.475Z,26.42
2023-07-17T15:58:14.514Z,6.20
2023-07-17T15:59:14.162Z,11.65
2023-07-17T16:05:17.256Z,10.75
2023-07-17T17:02:31.303Z,13.98
2023-07-17T17:28:08.656Z,13.30
2023-07-17T17:34:13.442Z,7.72
2023-07-17T17:40:15.429Z,26.30
2023-07-17T17:46:27.999Z,30.90
2023-07-17T17:52:33.756Z,24.58
2023-07-17T17:58:50.678Z,17.48
2023-07-17T18:05:03.236Z,27.63
2023-07-17T18:11:13.843Z,30.42
2023-07-17T18:17:41.059Z,28.02
2023-07-17T18:23:43.861Z,31.35
2023-07-17T18:29:51.378Z,31.27
2023-07-17T18:35:55.834Z,48.58
2023-07-17T18:42:11.402Z,99.07
2023-07-17T18:48:20.576Z,96.50
2023-07-17T18:54:35.410Z,74.78
2023-07-17T19:00:44.903Z,87.18
2023-07-17T19:07:08.494Z,43.85
2023-07-17T19:13:22.044Z,38.58
2023-07-17T19:19:34.519Z,53.22
2023-07-17T19:25:46.368Z,39.50
2023-07-17T19:31:49.499Z,46.20
2023-07-17T19:44:08.466Z,14.35
2023-07-17T19:50:41.256Z,11.73
2023-07-17T19:56:46.459Z,19.45
2023-07-17T20:02:49.042Z,16.80
2023-07-17T20:08:57.988Z,13.68
2023-07-17T20:15:30.181Z,17.00
2023-07-17T20:21:55.556Z,18.08
2023-07-17T20:28:23.561Z,27.30
2023-07-17T20:41:52.739Z,27.40
2023-07-17T20:48:09.752Z,36.53
2023-07-17T20:53:19.346Z,20.52
2023-07-17T20:54:32.591Z,27.48
2023-07-17T21:00:54.421Z,29.02
2023-07-17T21:07:00.944Z,24.73
2023-07-17T21:13:13.013Z,15.82
2023-07-17T21:19:23.040Z,19.40
2023-07-17T21:25:37.381Z,17.38
2023-07-17T21:31:55.179Z,15.43
2023-07-17T21:38:02.736Z,16.45
2023-07-17T21:44:21.375Z,37.47
2023-07-17T21:50:39.579Z,20.90
2023-07-17T21:56:42.498Z,10.95
2023-07-17T22:02:54.842Z,17.33
2023-07-17T22:09:07.420Z,18.25
2023-07-17T22:15:48.045Z,24.30
2023-07-17T22:22:05.176Z,25.88
2023-07-17T22:28:17.808Z,19.73
2023-07-17T22:34:23.398Z,22.85
2023-07-17T22:40:36.946Z,13.10
2023-07-17T22:46:48.502Z,26.38
2023-07-17T22:52:51.809Z,22.05
2023-07-17T22:59:26.622Z,10.98
2023-07-17T23:05:32.993Z,16.45
2023-07-17T23:11:41.355Z,11.30
2023-07-17T23:17:52.815Z,14.70
2023-07-17T23:23:55.512Z,11.90
2023-07-17T23:30:22.157Z,14.45
2023-07-17T23:36:35.131Z,9.70
2023-07-17T23:42:43.737Z,12.00
2023-07-17T23:49:12.634Z,10.45
2023-07-17T23:55:53.592Z,13.20
